Oulu, Suomi

28. heinäkuuta 2017 klo 15:43 (EEST) (GMT +0300)
Kempele | | Change Station

Kork 36 ft 64.86 °N, 25.54 °E | Updated 3 minutes ago

Puolipilvistä
Puolipilvistä
79.2 °F
Tuntuu kuin 81 °F
N
3.1
Tuuli Suunnaltaan vaihteleva Tuuli ilmansuunnasta Etelä
Gusts 6.9 mph

Tänään
Korkea -- | Matala -- °F
--% Sateen mahd.
Eilen
Korkea -- | Matala -- °F
Precip. -- tuumaa
Ilmanpaine 29.68 tuumaa
Näkyvyys 6.2 mailia
Pilviä Harvoja pilviä 3900 ft
Pilvistä 6700 ft
Lämpötilaindeksi 81 °F
Kastepiste 65 °F
Ilmankosteus 62%
Sademäärä 0.00 tuumaa
Lumensyvyys Ei saatavilla
4:04 AM 10:41 PM
Kasvava sirppi, 30% visible
METAR EFOU 281220Z AUTO 15007KT 130V200 9999 FEW039/// BKN067/// 23/14 Q1005
Ilmanpaine 29.68 tuumaa
Näkyvyys 6.2 mailia
Pilviä Harvoja pilviä 3900 ft
Pilvistä 6700 ft
Lämpötilaindeksi 81 °F
Kastepiste 65 °F
Ilmankosteus 62%
Sademäärä 0.00 tuumaa
Lumensyvyys Ei saatavilla
4:04 AM 10:41 PM
Kasvava sirppi, 30% visible
METAR EFOU 281220Z AUTO 15007KT 130V200 9999 FEW039/// BKN067/// 23/14 Q1005

Get Severe Weather Alerts

Thanks for signing up!

Be on the lookout for a verification email in your inbox.

You'll start receiving the daily forecast at 6 AM.

×

10-Day Weather Forecast

×

Almanac

Tähtitiede

Jul. 28, 2017 Nousuaika Laskuaika
Valoisa aika
Porvarillinen hämärä
Nauttinen hämärä
Astronominen hämärä
Kuu
Näkyvän valon pituus
Päivän pituus
Tomorrow will be .
, % of the Moon is Illuminated

Tämän päivän ennätykset

Country Highs Country Lows

Community

WunderPhotos

Category 6

Welcome to Category 6. This is the collective home for Weather Underground's featured writeups by Dr. Jeff Masters (right), Bob Henson (left), Chris Burt, and other regular contributors.

Nearby

Ilmanlaatu

  Ilmanlaatu AQ Index Pollutant
Not available.

Lumensyvyys

Station Depth Korkeus

Maanjäristysaktiivisuus

Paikkakunta Distance Mag. Time & Date
Minimum magnitude displayed is 2.5.

Coastal Water Temperatures

Paikka Lämpötila

Stations

Lähimmät sääasemat

Aseman sijainti Lämpötila Tuulen hyytävyys Kastepiste Ilmankosteus Tuuli Precip. Kork Päivitetty Tyyppi